Time;durP1;ratioP1;P1;durP2;ratioP2;P2;SDS_P1;SDS_P2;PMS_P1;PMS_P2;Temp;Humidity;BMP_temperature;BMP_pressure;BME280_temperature;BME280_humidity;BME280_pressure;Samples;Min_cycle;Max_cycle;Signal;HPM_P1;HPM_P2
2023/04/10 00:01:23;;;;;;;19.55;8.88;;;;;;;5.10;100.00;99403.09;4469681;32;20119;-67
2023/04/10 00:03:51;;;;;;;19.23;8.73;;;;;;;5.10;100.00;99403.09;4469659;32;20678;-67
2023/04/10 00:06:19;;;;;;;23.65;9.70;;;;;;;5.07;100.00;99398.06;4468565;32;20512;-67
2023/04/10 00:08:46;;;;;;;18.98;9.52;;;;;;;5.06;100.00;99396.38;4469743;32;20111;-67
2023/04/10 00:11:14;;;;;;;19.52;9.07;;;;;;;5.05;100.00;99396.47;4469489;32;20131;-67
2023/04/10 00:13:41;;;;;;;18.52;8.60;;;;;;;5.06;100.00;99393.78;4469790;32;20385;-67
2023/04/10 00:16:08;;;;;;;18.58;8.95;;;;;;;5.08;100.00;99386.72;4469662;32;20092;-66
2023/04/10 00:18:36;;;;;;;20.73;9.52;;;;;;;5.10;100.00;99387.50;4469751;32;20100;-66
2023/04/10 00:21:03;;;;;;;21.08;9.35;;;;;;;5.07;100.00;99385.06;4469669;32;20088;-67
2023/04/10 00:23:31;;;;;;;18.30;8.40;;;;;;;5.09;100.00;99380.62;4469758;32;20145;-66
2023/04/10 00:26:00;;;;;;;16.65;8.32;;;;;;;5.04;100.00;99376.59;4469417;32;20474;-67
2023/04/10 00:28:27;;;;;;;18.98;8.40;;;;;;;5.06;100.00;99379.97;4469020;32;20089;-67
2023/04/10 00:30:54;;;;;;;17.25;9.07;;;;;;;5.06;100.00;99372.19;4469697;32;20113;-66
2023/04/10 00:33:21;;;;;;;17.48;8.52;;;;;;;4.98;100.00;99370.84;4469772;32;20124;-67
2023/04/10 00:35:48;;;;;;;18.23;8.23;;;;;;;5.08;100.00;99373.75;4469511;32;20429;-67
2023/04/10 00:38:16;;;;;;;17.62;8.02;;;;;;;5.08;100.00;99375.50;4469853;32;20088;-66
2023/04/10 00:40:44;;;;;;;17.62;8.77;;;;;;;5.16;100.00;99375.91;4469286;32;20105;-67
2023/04/10 00:43:11;;;;;;;16.45;7.70;;;;;;;5.04;100.00;99376.59;4469905;32;20100;-67
2023/04/10 00:45:39;;;;;;;20.23;9.52;;;;;;;5.05;100.00;99373.91;4469366;32;20240;-66
2023/04/10 00:48:07;;;;;;;16.27;9.75;;;;;;;5.02;100.00;99368.91;4468241;32;20100;-67
2023/04/10 00:50:34;;;;;;;17.05;8.00;;;;;;;5.00;100.00;99377.69;4469469;32;20089;-67
2023/04/10 00:53:01;;;;;;;16.50;8.50;;;;;;;4.98;100.00;99370.00;4469388;32;20838;-66
2023/04/10 00:55:29;;;;;;;19.08;8.43;;;;;;;4.93;100.00;99372.03;4469405;32;20100;-66
2023/04/10 00:57:57;;;;;;;18.35;8.65;;;;;;;4.94;100.00;99373.69;4468197;32;20093;-66
2023/04/10 01:00:24;;;;;;;19.58;8.43;;;;;;;4.97;100.00;99369.16;4469387;32;20150;-66
2023/04/10 01:02:53;;;;;;;17.67;8.48;;;;;;;4.96;100.00;99366.66;4469546;32;20467;-66
2023/04/10 01:05:21;;;;;;;19.35;8.75;;;;;;;4.98;100.00;99367.38;4469202;32;20144;-66
2023/04/10 01:07:54;;;;;;;16.02;7.82;;;;;;;4.89;100.00;99366.19;4468037;32;20104;-66
2023/04/10 01:10:31;;;;;;;18.95;8.25;;;;;;;4.91;100.00;99364.31;4469279;32;20124;-66
2023/04/10 01:13:10;;;;;;;17.77;7.72;;;;;;;4.93;100.00;99362.47;4468065;32;20162;-67
2023/04/10 01:16:06;;;;;;;15.98;8.35;;;;;;;4.87;100.00;99360.22;4468041;32;20229;-66
2023/04/10 01:18:45;;;;;;;21.85;9.07;;;;;;;4.88;100.00;99366.25;4469184;32;20122;-66
2023/04/10 01:21:14;;;;;;;17.60;9.05;;;;;;;4.79;100.00;99360.66;4467809;32;20096;-67
2023/04/10 01:24:06;;;;;;;21.27;8.32;;;;;;;4.82;100.00;99364.00;4469391;32;20150;-67
2023/04/10 01:27:00;;;;;;;19.42;8.13;;;;;;;4.73;100.00;99355.81;4469507;32;20171;-67
2023/04/10 01:29:29;;;;;;;18.20;8.10;;;;;;;4.74;100.00;99362.69;4468142;32;20114;-67
2023/04/10 01:32:01;;;;;;;17.20;8.25;;;;;;;4.76;100.00;99355.63;4468012;32;20153;-66
2023/04/10 01:34:35;;;;;;;15.77;7.57;;;;;;;4.80;100.00;99349.34;4468995;32;20491;-66
2023/04/10 01:37:03;;;;;;;;;;;;;;;4.83;100.00;99350.94;4468227;32;20096;-67
2023/04/10 01:39:32;;;;;;;;;;;;;;;4.88;100.00;99343.72;4466920;32;19994;-66
2023/04/10 01:42:00;;;;;;;;;;;;;;;4.90;100.00;99347.06;4468090;32;20007;-67
2023/04/10 01:44:32;;;;;;;;;;;;;;;4.97;100.00;99342.38;4469719;32;20043;-66
2023/04/10 01:46:59;;;;;;;;;;;;;;;4.96;100.00;99344.13;4468459;32;20081;-66
2023/04/10 01:49:27;;;;;;;;;;;;;;;5.00;100.00;99350.00;4468363;32;20043;-67
2023/04/10 01:51:58;;;;;;;;;;;;;;;4.98;100.00;99342.28;4469306;32;20341;-67
2023/04/10 01:54:26;;;;;;;;;;;;;;;5.02;100.00;99349.91;4468315;32;20008;-66
2023/04/10 01:56:55;;;;;;;;;;;;;;;5.03;100.00;99342.03;4469093;32;20036;-66
2023/04/10 01:59:23;;;;;;;;;;;;;;;5.10;100.00;99347.69;4469498;32;20471;-67
2023/04/10 02:01:57;;;;;;;;;;;;;;;5.03;100.00;99344.63;4469130;32;19972;-66
2023/04/10 02:04:25;;;;;;;;;;;;;;;5.04;100.00;99351.50;4469154;32;19988;-66
2023/04/10 02:06:59;;;;;;;;;;;;;;;5.04;100.00;99343.69;4468853;32;19999;-66
2023/04/10 02:09:45;;;;;;;;;;;;;;;4.96;100.00;99351.06;4469043;32;19996;-67
2023/04/10 02:12:15;;;;;;;;;;;;;;;4.97;100.00;99351.00;4468794;32;19982;-66
2023/04/10 02:14:44;;;;;;;;;;;;;;;4.98;100.00;99349.22;4469139;32;19998;-66
2023/04/10 02:17:13;;;;;;;;;;;;;;;5.01;100.00;99350.81;4467615;32;19992;-66
2023/04/10 02:19:40;;;;;;;;;;;;;;;4.95;100.00;99350.25;4467694;32;19990;-66
2023/04/10 02:22:07;;;;;;;;;;;;;;;4.96;100.00;99351.06;4468857;32;19997;-66
2023/04/10 02:24:35;;;;;;;;;;;;;;;4.91;100.00;99353.09;4469266;32;20357;-66
2023/04/10 02:27:03;;;;;;;;;;;;;;;4.94;100.00;99352.94;4467499;32;20482;-66
2023/04/10 02:29:31;;;;;;;;;;;;;;;4.96;100.00;99351.91;4468960;32;19973;-67
2023/04/10 02:32:02;;;;;;;;;;;;;;;4.90;100.00;99343.63;4468601;32;20337;-66
2023/04/10 02:34:29;;;;;;;;;;;;;;;4.86;100.00;99342.12;4468850;32;19987;-66
2023/04/10 02:36:58;;;;;;;;;;;;;;;4.85;100.00;99336.09;4468981;32;20033;-66
2023/04/10 02:39:28;;;;;;;;;;;;;;;4.76;100.00;99329.66;4468594;32;20044;-66
2023/04/10 02:41:55;;;;;;;;;;;;;;;4.81;100.00;99337.19;4468696;32;20367;-66
2023/04/10 02:44:23;;;;;;;;;;;;;;;4.82;100.00;99332.88;4468550;32;20430;-66
2023/04/10 02:46:50;;;;;;;;;;;;;;;4.75;100.00;99328.03;4469007;32;20003;-66
2023/04/10 02:49:18;;;;;;;;;;;;;;;4.76;100.00;99329.66;4468830;32;19988;-67
2023/04/10 02:51:45;;;;;;;;;;;;;;;4.82;100.00;99328.50;4470726;32;20320;-67
2023/04/10 02:54:13;;;;;;;;;;;;;;;4.81;100.00;99329.41;4470674;32;20029;-66
2023/04/10 02:56:40;;;;;;;;;;;;;;;4.90;100.00;99330.66;4470894;32;19988;-67
2023/04/10 02:59:08;;;;;;;;;;;;;;;4.93;100.00;99323.50;4470848;32;20378;-66
2023/04/10 03:01:35;;;;;;;;;;;;;;;4.87;100.00;99323.03;4470751;32;19976;-66
2023/04/10 03:04:03;;;;;;;;;;;;;;;4.87;100.00;99326.47;4470469;32;20405;-66
2023/04/10 03:06:31;;;;;;;;;;;;;;;4.95;100.00;99331.22;4470601;32;20039;-66
2023/04/10 03:08:58;;;;;;;;;;;;;;;4.94;100.00;99327.78;4470360;32;19984;-66
2023/04/10 03:11:26;;;;;;;;;;;;;;;4.92;100.00;99328.78;4470532;32;19984;-66
2023/04/10 03:13:54;;;;;;;;;;;;;;;4.83;100.00;99330.19;4470770;32;19988;-66
2023/04/10 03:16:22;;;;;;;;;;;;;;;4.77;100.00;99327.94;4470819;32;20490;-66
2023/04/10 03:18:49;;;;;;;;;;;;;;;4.74;100.00;99321.16;4470793;32;20071;-66
2023/04/10 03:21:17;;;;;;;;;;;;;;;4.73;100.00;99327.25;4470641;32;20019;-67
2023/04/10 03:23:45;;;;;;;;;;;;;;;4.72;100.00;99322.16;4470394;32;20036;-67
2023/04/10 03:26:12;;;;;;;;;;;;;;;4.72;100.00;99328.16;4470610;32;20032;-67
2023/04/10 03:28:40;;;;;;;;;;;;;;;4.73;100.00;99322.06;4470485;32;20356;-66
2023/04/10 03:31:09;;;;;;;;;;;;;;;4.76;100.00;99321.06;4470350;32;20398;-67
2023/04/10 03:33:37;;;;;;;;;;;;;;;4.76;100.00;99324.47;4470534;32;19976;-66
2023/04/10 03:36:06;;;;;;;;;;;;;;;4.73;100.00;99324.66;4470570;32;19980;-66
2023/04/10 03:38:33;;;;;;;;;;;;;;;4.71;100.00;99326.50;4470355;32;20467;-66
2023/04/10 03:41:01;;;;;;;;;;;;;;;4.74;100.00;99315.97;4470617;32;19983;-67
2023/04/10 03:43:30;;;;;;;;;;;;;;;4.65;100.00;99326.84;4470523;32;19996;-66
2023/04/10 03:45:57;;;;;;;;;;;;;;;4.60;100.00;99321.06;4470449;32;19988;-66
2023/04/10 03:48:29;;;;;;;;;;;;;;;4.57;100.00;99329.87;4470229;32;19976;-66
2023/04/10 03:50:57;;;;;;;;;;;;;;;4.51;100.00;99319.00;4470488;32;20313;-66
2023/04/10 03:53:24;;;;;;;;;;;;;;;4.44;100.00;99321.09;4470221;32;20064;-66
2023/04/10 03:55:52;;;;;;;;;;;;;;;4.49;100.00;99326.03;4470687;32;20059;-66
2023/04/10 03:58:20;;;;;;;;;;;;;;;4.47;100.00;99328.72;4470343;32;19980;-66
2023/04/10 04:00:48;;;;;;;;;;;;;;;4.53;100.00;99327.53;4470093;32;20047;-66
2023/04/10 04:03:16;;;;;;;;;;;;;;;4.51;100.00;99330.22;4469826;32;20309;-66
2023/04/10 04:05:45;;;;;;;;;;;;;;;4.43;100.00;99335.81;4470406;32;20051;-66
2023/04/10 04:08:16;;;;;;;;;;;;;;;4.43;100.00;99332.38;4470248;32;20043;-66
2023/04/10 04:10:48;;;;;;;;;;;;;;;4.37;100.00;99332.72;4470202;32;20322;-66
2023/04/10 04:13:17;;;;;;;;;;;;;;;4.42;100.00;99336.75;4470124;32;19988;-66
2023/04/10 04:15:47;;;;;;;;;;;;;;;4.42;100.00;99341.06;4470478;32;19994;-67
2023/04/10 04:18:15;;;;;;;;;;;;;;;4.43;100.00;99337.56;4470275;32;20041;-66
2023/04/10 04:20:42;;;;;;;;;;;;;;;4.42;100.00;99341.94;4470095;32;19980;-67
2023/04/10 04:23:10;;;;;;;;;;;;;;;4.43;100.00;99337.56;4470323;32;20043;-66
2023/04/10 04:25:38;;;;;;;;;;;;;;;4.44;100.00;99334.91;4470378;32;19996;-66
2023/04/10 04:28:07;;;;;;;;;;;;;;;4.49;100.00;99337.22;4470240;32;20026;-66
2023/04/10 04:30:34;;;;;;;;;;;;;;;4.45;100.00;99330.53;4468648;32;20275;-66
2023/04/10 04:33:03;;;;;;;;;;;;;;;4.53;100.00;99337.91;4470018;32;20314;-67
2023/04/10 04:35:31;;;;;;;;;;;;;;;4.57;100.00;99344.59;4470129;32;19998;-66
2023/04/10 04:37:58;;;;;;;;;;;;;;;4.57;100.00;99345.44;4470262;32;20036;-66
2023/04/10 04:40:26;;;;;;;;;;;;;;;4.57;100.00;99349.78;4469785;32;19972;-66
2023/04/10 04:42:54;;;;;;;;;;;;;;;4.64;100.00;99352.91;4470065;32;20029;-66
2023/04/10 04:45:22;;;;;;;;;;;;;;;4.72;100.00;99348.94;4470298;32;19980;-66
2023/04/10 04:47:51;;;;;;;;;;;;;;;4.71;100.00;99351.59;4470008;32;19976;-66
2023/04/10 04:50:18;;;;;;;;;;;;;;;4.82;100.00;99354.47;4470186;32;20069;-66
2023/04/10 04:52:46;;;;;;;;;;;;;;;4.92;100.00;99365.16;4468514;32;20034;-66
2023/04/10 04:55:14;;;;;;;;;;;;;;;4.96;100.00;99358.88;4469883;32;19979;-67
2023/04/10 04:57:41;;;;;;;;;;;;;;;5.03;100.00;99357.59;4470084;32;20397;-66
2023/04/10 05:00:09;;;;;;;;;;;;;;;5.11;100.00;99359.75;4469762;32;20024;-66
2023/04/10 05:02:37;;;;;;;;;;;;;;;5.12;100.00;99353.66;4470064;32;19980;-67
2023/04/10 05:05:05;;;;;;;;;;;;;;;5.21;100.00;99360.06;4469977;32;20055;-66
2023/04/10 05:07:37;;;;;;;;;;;;;;;5.26;100.00;99369.25;4469847;32;20067;-67
2023/04/10 05:10:05;;;;;;;;;;;;;;;5.29;100.00;99371.69;4469839;32;20322;-66
2023/04/10 05:12:34;;;;;;;;;;;;;;;5.34;100.00;99363.63;4469663;32;20486;-66
2023/04/10 05:15:01;;;;;;;;;;;;;;;5.37;100.00;99366.03;4469859;32;20000;-66
2023/04/10 05:17:29;;;;;;;;;;;;;;;5.37;100.00;99368.63;4469937;32;20040;-66
2023/04/10 05:19:57;;;;;;;;;;;;;;;5.46;100.00;99381.09;4469631;32;20320;-66
2023/04/10 05:22:26;;;;;;;;;;;;;;;5.55;100.00;99373.69;4469995;32;20029;-67
2023/04/10 05:24:57;;;;;;;;;;;;;;;5.69;100.00;99368.50;4469647;32;19980;-66
2023/04/10 05:27:24;;;;;;;;;;;;;;;5.73;100.00;99377.81;4469633;32;20333;-66
2023/04/10 05:29:51;;;;;;;;;;;;;;;5.84;100.00;99379.75;4469447;32;20039;-66
2023/04/10 05:32:20;;;;;;;;;;;;;;;5.93;100.00;99378.38;4469542;32;19984;-66
2023/04/10 05:34:48;;;;;;;;;;;;;;;6.03;100.00;99379.53;4469557;32;19988;-67
2023/04/10 05:37:16;;;;;;;;;;;;;;;6.24;100.00;99382.59;4469541;32;20390;-66
2023/04/10 05:39:44;;;;;;;;;;;;;;;6.36;100.00;99378.41;4469508;32;20427;-67
2023/04/10 05:42:12;;;;;;;;;;;;;;;6.47;100.00;99377.72;4469442;32;20000;-67
2023/04/10 05:44:41;;;;;;;;;;;;;;;6.59;100.00;99387.34;4469410;32;20011;-67
2023/04/10 05:47:09;;;;;;;;;;;;;;;6.62;100.00;99386.34;4469507;32;19998;-67
2023/04/10 05:49:38;;;;;;;;;;;;;;;6.68;100.00;99381.56;4468162;32;19980;-67
2023/04/10 05:52:06;;;;;;;;;;;;;;;6.76;100.00;99381.06;4469684;32;20003;-66
2023/04/10 05:54:34;;;;;;;;;;;;;;;6.87;100.00;99389.06;4467876;32;19984;-67
2023/04/10 05:57:01;;;;;;;;;;;;;;;7.00;100.00;99390.87;4469204;32;19985;-67
2023/04/10 05:59:29;;;;;;;;;;;;;;;7.26;100.00;99394.38;4469461;32;19972;-67
2023/04/10 06:01:57;;;;;;;;;;;;;;;7.42;100.00;99386.41;4467936;32;19984;-67
2023/04/10 06:04:25;;;;;;;;;;;;;;;7.57;100.00;99398.41;4469257;32;20039;-67
2023/04/10 06:06:54;;;;;;;;;;;;;;;7.71;100.00;99391.44;4469274;32;20298;-67
2023/04/10 06:09:21;;;;;;;;;;;;;;;7.85;100.00;99390.50;4469024;32;20006;-67
2023/04/10 06:11:48;;;;;;;;;;;;;;;7.95;100.00;99399.37;4468945;32;20341;-67
2023/04/10 06:14:16;;;;;;;;;;;;;;;8.29;100.00;99400.47;4469087;32;19988;-67
2023/04/10 06:16:44;;;;;;;;;;;;;;;8.48;97.30;99396.63;4468907;32;19980;-67
2023/04/10 06:19:11;;;;;;;;;;;;;;;8.48;96.02;99399.22;4468903;32;19984;-67
2023/04/10 06:21:39;;;;;;;;;;;;;;;8.72;94.89;99396.66;4468754;32;19969;-67
2023/04/10 06:24:06;;;;;;;;;;;;;;;8.78;92.22;99401.44;4468959;32;19999;-67
2023/04/10 06:26:34;;;;;;;;;;;;;;;8.97;91.44;99398.31;4470501;32;20273;-67
2023/04/10 06:29:02;;;;;;;;;;;;;;;9.00;92.03;99398.09;4471160;32;20053;-67
2023/04/10 06:31:31;;;;;;;;;;;;;;;9.13;89.36;99402.41;4470563;32;20022;-67
2023/04/10 06:33:59;;;;;;;;;;;;;;;9.20;88.38;99395.81;4470877;32;19984;-67
2023/04/10 06:36:26;;;;;;;;;;;;;;;9.31;87.10;99398.47;4471006;32;19980;-67
2023/04/10 06:38:54;;;;;;;;;;;;;;;9.46;82.82;99395.66;4471031;32;19980;-67
2023/04/10 06:41:22;;;;;;;;;;;;;;;9.69;79.95;99391.31;4470757;32;20267;-67
2023/04/10 06:43:52;;;;;;;;;;;;;;;9.84;75.89;99394.53;4470975;32;19988;-67
2023/04/10 06:46:20;;;;;;;;;;;;;;;9.90;75.59;99394.94;4470523;32;20033;-67
2023/04/10 06:48:47;;;;;;;;;;;;;;;9.94;74.20;99392.91;4470917;32;19968;-67
2023/04/10 06:51:14;;;;;;;;;;;;;;;10.04;74.29;99387.81;4470581;32;20449;-67
2023/04/10 06:53:42;;;;;;;;;;;;;;;10.22;70.72;99386.38;4470790;32;20002;-67
2023/04/10 06:56:10;;;;;;;;;;;;;;;10.30;68.89;99397.06;4470533;32;19975;-67
2023/04/10 06:58:37;;;;;;;;;;;;;;;10.23;69.83;99392.44;4470903;32;20007;-67
2023/04/10 07:01:04;;;;;;;;;;;;;;;10.37;69.50;99388.75;4470620;32;19998;-67
2023/04/10 07:03:32;;;;;;;;;;;;;;;10.27;68.71;99389.44;4470910;32;19999;-67
2023/04/10 07:06:01;;;;;;;;;;;;;;;10.32;67.57;99390.87;4470489;32;20038;-67
2023/04/10 07:08:29;;;;;;;;;;;;;;;10.39;65.94;99398.16;4470586;32;19976;-67
2023/04/10 07:10:56;;;;;;;;;;;;;;;10.44;65.97;99390.78;4470578;32;20039;-67
2023/04/10 07:13:25;;;;;;;;;;;;;;;10.61;66.21;99391.22;4470561;32;19980;-67
2023/04/10 07:15:52;;;;;;;;;;;;;;;10.60;67.20;99392.19;4470444;32;20428;-67
2023/04/10 07:18:19;;;;;;;;;;;;;;;10.65;68.92;99393.47;4470537;32;20305;-67
2023/04/10 07:20:48;;;;;;;;;;;;;;;10.78;66.42;99393.34;4470654;32;20029;-67
2023/04/10 07:23:16;;;;;;;;;;;;;;;10.72;66.68;99387.75;4470443;32;19991;-67
2023/04/10 07:25:43;;;;;;;;;;;;;;;10.80;65.59;99390.59;4470509;32;20003;-67
2023/04/10 07:28:10;;;;;;;;;;;;;;;10.97;63.54;99389.25;4470323;32;20506;-67
2023/04/10 07:30:38;;;;;;;;;;;;;;;11.00;61.90;99387.19;4470678;32;20363;-67
2023/04/10 07:33:06;;;;;;;;;;;;;;;11.20;62.03;99387.34;4470274;32;20006;-67
2023/04/10 07:35:33;;;;;;;;;;;;;;;11.25;60.22;99397.47;4470195;32;19991;-67
2023/04/10 07:38:00;;;;;;;;;;;;;;;11.10;59.15;99394.34;4470368;32;19986;-67
2023/04/10 07:40:28;;;;;;;;;;;;;;;11.19;59.36;99390.97;4470498;32;20010;-67
2023/04/10 07:42:55;;;;;;;;;;;;;;;11.38;61.32;99398.13;4470317;32;19992;-67
2023/04/10 07:45:22;;;;;;;;;;;;;;;11.44;60.53;99394.16;4470476;32;19978;-67
2023/04/10 07:47:50;;;;;;;;;;;;;;;11.34;59.55;99388.88;4470308;32;19996;-67
2023/04/10 07:50:17;;;;;;;;;;;;;;;11.31;60.52;99389.09;4470373;32;20021;-67
2023/04/10 07:52:45;;;;;;;;;;;;;;;11.57;59.54;99383.47;4470202;32;20368;-67
2023/04/10 07:55:12;;;;;;;;;;;;;;;11.69;61.21;99390.34;4470213;32;19972;-67
2023/04/10 07:57:39;;;;;;;;;;;;;;;11.67;57.56;99381.75;4470129;32;20309;-67
2023/04/10 08:00:08;;;;;;;;;;;;;;;11.89;57.45;99381.59;4470207;32;19984;-67
2023/04/10 08:02:39;;;;;;;;;;;;;;;11.63;55.68;99377.75;4470204;32;19980;-67
2023/04/10 08:05:07;;;;;;;;;;;;;;;11.93;58.37;99381.38;4470219;32;20044;-67
2023/04/10 08:07:35;;;;;;;;;;;;;;;11.92;57.58;99380.50;4469807;32;20052;-67
2023/04/10 08:10:02;;;;;;;;;;;;;;;11.87;56.47;99373.03;4470153;32;19980;-67
2023/04/10 08:12:32;;;;;;;;;;;;;;;12.04;56.87;99381.28;4470027;32;20040;-67
2023/04/10 08:14:59;;;;;;;;;;;;;;;12.16;68.12;99382.03;4470098;32;19993;-67
2023/04/10 08:17:26;;;;;;;;;;;;;;;12.32;68.09;99378.91;4469943;32;19992;-67
2023/04/10 08:19:55;;;;;;;;;;;;;;;12.15;71.37;99373.31;4470138;32;20094;-67
2023/04/10 08:22:22;;;;;;;;;;;;;;;11.99;70.08;99373.81;4470106;32;19996;-67
2023/04/10 08:24:49;;;;;;;;;;;;;;;12.09;68.76;99373.84;4470068;32;19984;-67
2023/04/10 08:27:17;;;;;;;;;;;;;;;12.13;74.00;99363.91;4469993;32;19987;-67
2023/04/10 08:29:44;;;;;;;;;;;;;;;12.07;77.25;99376.59;4470139;32;19980;-67
2023/04/10 08:32:11;;;;;;;;;;;;;;;12.05;72.75;99367.19;4470268;32;19983;-67
2023/04/10 08:34:39;;;;;;;;;;;;;;;12.03;75.34;99369.13;4470044;32;19982;-67
2023/04/10 08:37:08;;;;;;;;;;;;;;;12.12;73.37;99368.31;4469877;32;20329;-67
2023/04/10 08:39:37;;;;;;;;;;;;;;;12.00;79.55;99366.75;4469855;32;20456;-67
2023/04/10 08:42:05;;;;;;;;;;;;;;;11.98;75.29;99369.50;4469974;32;20036;-67
2023/04/10 08:44:34;;;;;;;;;;;;;;;12.00;75.96;99369.37;4469897;32;19985;-67
2023/04/10 08:47:01;;;;;;;;;;;;;;;12.02;72.29;99354.31;4469754;32;20051;-67
2023/04/10 08:49:38;;;;;;;;;;;;;;;12.27;72.27;99360.91;4469444;32;19996;-67
2023/04/10 08:52:06;;;;;;;;;;;;;;;12.35;68.75;99362.88;4469945;32;20063;-67
2023/04/10 08:54:35;;;;;;;;;;;;;;;12.36;71.46;99361.91;4469804;32;20326;-67
2023/04/10 08:57:03;;;;;;;;;;;;;;;12.51;67.48;99360.56;4468486;32;20361;-67
2023/04/10 08:59:30;;;;;;;;;;;;;;;12.52;62.00;99357.00;4470176;32;20043;-67
2023/04/10 09:01:58;;;;;;;;;;;;;;;12.57;63.21;99357.41;4469774;32;20023;-67
2023/04/10 09:04:26;;;;;;;;;;;;;;;12.70;64.36;99365.03;4468514;32;20056;-67
2023/04/10 09:06:53;;;;;;;;;;;;;;;12.52;59.61;99361.37;4469675;32;19964;-67
2023/04/10 09:09:21;;;;;;;;;;;;;;;12.54;62.83;99355.03;4469633;32;19999;-67
2023/04/10 09:11:51;;;;;;;;;;;;;;;12.45;62.96;99352.41;4469841;32;20056;-67
2023/04/10 09:14:22;;;;;;;;;;;;;;;12.43;63.62;99347.28;4469533;32;19975;-67
2023/04/10 09:16:49;;;;;;;;;;;;;;;12.73;65.35;99343.75;4469941;32;19972;-67
2023/04/10 09:19:32;;;;;;;;;;;;;;;12.91;60.59;99341.28;4469494;32;20000;-67
2023/04/10 09:22:00;;;;;;;;;;;;;;;12.82;59.62;99339.44;4470075;32;19998;-67
2023/04/10 09:24:27;;;;;;;;;;;;;;;12.93;59.34;99344.59;4469601;32;19995;-67
2023/04/10 09:26:55;;;;;;;;;;;;;;;13.03;58.13;99341.12;4469557;32;19980;-67
2023/04/10 09:29:22;;;;;;;;;;;;;;;13.25;59.72;99334.75;4469546;32;19995;-67
2023/04/10 09:31:50;;;;;;;;;;;;;;;13.59;54.29;99340.38;4468317;32;20785;-67
2023/04/10 09:34:21;;;;;;;;;;;;;;;13.57;52.21;99330.97;4469422;32;20345;-67
2023/04/10 09:36:53;;;;;;;;;;;;;;;13.65;52.23;99341.62;4469523;32;20072;-67
2023/04/10 09:39:20;;;;;;;;;;;;;;;13.83;52.07;99344.34;4469130;32;20043;-67
2023/04/10 09:41:48;;;;;;;;;;;;;;;14.13;53.24;99334.53;4469517;32;20050;-67
2023/04/10 09:44:18;;;;;;;;;;;;;;;14.14;49.72;99337.00;4469366;32;20509;-67
2023/04/10 09:46:45;;;;;;;;;;;;;;;14.25;49.92;99325.44;4469464;32;20319;-67
2023/04/10 09:49:13;;;;;;;;;;;;;;;14.33;52.51;99333.44;4469188;32;19990;-67
2023/04/10 09:51:41;;;;;;;;;;;;;;;14.15;49.47;99327.28;4469499;32;19989;-67
2023/04/10 09:54:09;;;;;;;;;;;;;;;14.14;50.15;99322.97;4469060;32;20035;-67
2023/04/10 09:56:37;;;;;;;;;;;;;;;14.13;46.69;99329.25;4469475;32;19990;-67
2023/04/10 09:59:05;;;;;;;;;;;;;;;14.28;45.93;99316.41;4469074;32;20320;-67
2023/04/10 10:01:35;;;;;;;;;;;;;;;14.49;45.71;99319.59;4470908;32;19989;-67
2023/04/10 10:04:03;;;;;;;;;;;;;;;14.89;45.79;99320.19;4471257;32;19976;-67
2023/04/10 10:06:31;;;;;;;;;;;;;;;15.03;46.18;99324.09;4470988;32;20012;-67
2023/04/10 10:09:03;;;;;;;;;;;;;;;14.86;43.99;99320.50;4470542;32;20002;-67
2023/04/10 10:11:34;;;;;;;;;;;;;;;15.05;45.86;99320.34;4471134;32;20010;-67
2023/04/10 10:14:02;;;;;;;;;;;;;;;14.79;47.11;99316.78;4470792;32;20457;-67
2023/04/10 10:16:39;;;;;;;;;;;;;;;14.59;47.25;99297.63;4470991;32;20024;-67
2023/04/10 10:19:06;;;;;;;;;;;;;;;14.80;47.07;99318.47;4471180;32;20060;-67
2023/04/10 10:21:34;;;;;;;;;;;;;;;15.13;45.88;99313.47;4471021;32;20056;-67
2023/04/10 10:24:01;;;;;;;;;;;;;;;15.17;45.32;99304.25;4469578;32;19972;-67
2023/04/10 10:26:29;;;;;;;;;;;;;;;14.68;44.79;99294.94;4470780;32;20362;-67
2023/04/10 10:28:57;;;;;;;;;;;;;;;14.73;46.95;99295.31;4469411;32;20291;-67
2023/04/10 10:31:24;;;;;;;;;;;;;;;15.54;45.32;99298.72;4469652;32;20003;-67
2023/04/10 10:33:52;;;;;;;;;;;;;;;15.31;42.41;99293.13;4470875;32;19972;-67
2023/04/10 10:36:19;;;;;;;;;;;;;;;14.98;45.86;99298.16;4470811;32;20039;-67
2023/04/10 10:38:50;;;;;;;;;;;;;;;14.77;44.65;99292.37;4469284;32;20010;-67
2023/04/10 10:41:20;;;;;;;;;;;;;;;14.94;44.76;99295.97;4469646;32;19988;-67
2023/04/10 10:44:11;;;;;;;;;;;;;;;15.20;44.91;99296.88;4469685;32;19987;-67
2023/04/10 10:46:49;;;;;;;;;;;;;;;14.98;43.77;99298.16;4463114;32;20434;-67
2023/04/10 10:49:16;;;;;;;;;;;;;;;15.32;45.09;99286.88;4469506;32;20048;-67
2023/04/10 10:51:47;;;;;;;;;;;;;;;15.64;44.06;99296.00;4470915;32;20330;-67
2023/04/10 10:54:28;;;;;;;;;;;;;;;15.33;42.95;99296.44;4470594;32;19972;-67
2023/04/10 10:56:55;;;;;;;;;;;;;;;15.29;45.03;99295.13;4470606;32;20421;-67
2023/04/10 10:59:41;;;;;;;;;;;;;;;15.17;44.63;99293.69;4470781;32;20040;-67
2023/04/10 11:02:14;;;;;;;;;;;;;;;15.50;45.19;99297.38;4470749;32;20032;-67
2023/04/10 11:04:48;;;;;;;;;;;;;;;15.89;43.75;99280.28;4470708;32;19995;-67
2023/04/10 11:07:15;;;;;;;;;;;;;;;15.67;42.71;99293.03;4470761;32;20412;-65
2023/04/10 11:09:43;;;;;;;;;;;;;;;15.54;44.08;99292.63;4470281;32;19975;-65
2023/04/10 11:12:10;;;;;;;;;;;;;;;15.61;45.25;99289.19;4470384;32;20047;-65
2023/04/10 11:14:38;;;;;;;;;;;;;;;15.76;46.54;99285.94;4470365;32;20028;-65
2023/04/10 11:17:06;;;;;;;;;;;;;;;15.46;46.53;99282.84;4469444;32;19990;-65
2023/04/10 11:19:52;;;;;;;;;;;;;;;15.15;48.76;99278.00;4470506;32;20000;-65
2023/04/10 11:22:19;;;;;;;;;;;;;;;15.19;45.90;99270.63;4470550;32;19988;-65
2023/04/10 11:24:53;;;;;;;;;;;;;;;15.46;46.08;99277.56;4470533;32;20025;-65
2023/04/10 11:27:39;;;;;;;;;;;;;;;15.44;44.81;99275.06;4470511;32;20082;-65
2023/04/10 11:30:24;;;;;;;;;;;;;;;15.86;45.23;99270.84;4470416;32;20028;-65
2023/04/10 11:32:52;;;;;;;;;;;;;;;15.38;44.83;99275.69;4470588;32;20384;-65
2023/04/10 11:35:20;;;;;;;;;;;;;;;15.27;46.18;99271.47;4470553;32;20538;-65
2023/04/10 11:37:47;;;;;;;;;;;;;;;15.49;45.95;99263.19;4470536;32;19990;-65
2023/04/10 11:40:16;;;;;;;;;;;;;;;15.43;46.12;99270.78;4470047;32;20040;-65
2023/04/10 11:42:43;;;;;;;;;;;;;;;15.57;46.11;99271.19;4470577;32;19984;-65
2023/04/10 11:45:26;;;;;;;;;;;;;;;15.24;45.30;99261.22;4470271;32;19981;-65
2023/04/10 11:47:56;;;;;;;;;;;;;;;15.05;46.78;99278.09;4470400;32;20031;-65
2023/04/10 11:50:28;;;;;;;;;;;;;;;15.13;46.74;99268.59;4470322;32;20055;-65
2023/04/10 11:52:55;;;;;;;;;;;;;;;15.43;47.30;99262.03;4470445;32;20021;-65
2023/04/10 11:55:37;;;;;;;;;;;;;;;14.83;48.61;99260.13;4470458;32;20359;-65
2023/04/10 11:58:04;;;;;;;;;;;;;;;14.55;49.06;99262.81;4470312;32;19994;-65
2023/04/10 12:00:31;;;;;;;;;;;;;;;13.98;50.45;99258.59;4468958;32;20029;-65
2023/04/10 12:02:59;;;;;;;;;;;;;;;13.76;52.03;99257.19;4470517;32;19984;-65
2023/04/10 12:05:27;;;;;;;;;;;;;;;14.19;51.63;99252.25;4470405;32;19984;-65
2023/04/10 12:07:55;;;;;;;;;;;;;;;14.39;51.21;99250.31;4470257;32;19992;-65
2023/04/10 12:10:22;;;;;;;;;;;;;;;14.35;51.98;99255.06;4469780;32;20035;-65
2023/04/10 12:12:50;;;;;;;;;;;;;;;14.52;51.00;99258.66;4470257;32;20048;-65
2023/04/10 12:15:27;;;;;;;;;;;;;;;14.45;51.73;99256.78;4470001;32;19979;-65
2023/04/10 12:17:54;;;;;;;;;;;;;;;14.63;51.52;99262.91;4470356;32;20001;-65
2023/04/10 12:20:25;;;;;;;;;;;;;;;14.98;50.75;99250.66;4469130;32;20000;-65
2023/04/10 12:22:55;;;;;;;;;;;;;;;15.03;49.99;99247.56;4469600;32;19988;-65
2023/04/10 12:25:23;;;;;;;;;;;;;;;15.19;49.67;99249.50;4470388;32;20355;-65
2023/04/10 12:27:50;;;;;;;;;;;;;;;15.63;49.64;99243.31;4470009;32;19986;-65
2023/04/10 12:30:17;;;;;;;;;;;;;;;16.06;50.04;99239.69;4470071;32;20000;-65
2023/04/10 12:32:54;;;;;;;;;;;;;;;15.99;49.46;99233.41;4470046;32;19976;-65
2023/04/10 12:35:37;;;;;;;;;;;;;;;15.66;48.93;99243.81;4469980;32;19972;-65
2023/04/10 12:38:05;;;;;;;;;;;;;;;15.27;53.15;99249.53;4470215;32;19976;-65
2023/04/10 12:40:32;;;;;;;;;;;;;;;15.76;53.29;99239.25;4468775;32;19988;-65
2023/04/10 12:42:59;;;;;;;;;;;;;;;15.54;51.43;99230.06;4470166;32;19980;-65
2023/04/10 12:45:43;;;;;;;;;;;;;;;15.47;50.65;99238.78;4469089;32;19968;-65